sensor_id;sensor_type;location;lat;lon;timestamp;pressure;altitude;pressure_sealevel;temperature;humidity
64616;BME280;51027;42.162;24.754;2022-10-31T00:05:55;99994.84;;;16.42;51.70
64616;BME280;51027;42.162;24.754;2022-10-31T00:12:04;99991.06;;;16.47;51.93
64616;BME280;51027;42.162;24.754;2022-10-31T00:18:54;99984.81;;;16.48;51.84
64616;BME280;51027;42.162;24.754;2022-10-31T00:21:53;99987.78;;;16.57;51.60
64616;BME280;51027;42.162;24.754;2022-10-31T00:31:54;99995.06;;;16.69;51.25
64616;BME280;51027;42.162;24.754;2022-10-31T00:45:11;99993.97;;;16.88;51.25
64616;BME280;51027;42.162;24.754;2022-10-31T01:18:39;99974.38;;;17.46;49.44
64616;BME280;51027;42.162;24.754;2022-10-31T01:21:45;99968.09;;;17.47;49.49
64616;BME280;51027;42.162;24.754;2022-10-31T01:28:50;99972.78;;;17.58;49.17
64616;BME280;51027;42.162;24.754;2022-10-31T01:32:19;99959.78;;;17.66;48.55
64616;BME280;51027;42.162;24.754;2022-10-31T02:43:09;99950.00;;;17.80;47.78
64616;BME280;51027;42.162;24.754;2022-10-31T02:48:21;99957.41;;;17.90;47.63
64616;BME280;51027;42.162;24.754;2022-10-31T02:50:53;99960.81;;;17.92;47.78
64616;BME280;51027;42.162;24.754;2022-10-31T02:53:20;99972.63;;;17.88;48.09
64616;BME280;51027;42.162;24.754;2022-10-31T02:55:57;99984.69;;;17.93;47.59
64616;BME280;51027;42.162;24.754;2022-10-31T02:58:26;99958.84;;;17.81;47.98
64616;BME280;51027;42.162;24.754;2022-10-31T03:06:34;99980.03;;;17.97;48.03
64616;BME280;51027;42.162;24.754;2022-10-31T03:09:30;99984.84;;;18.04;47.74
64616;BME280;51027;42.162;24.754;2022-10-31T03:12:07;99989.44;;;18.02;47.63
64616;BME280;51027;42.162;24.754;2022-10-31T03:14:49;99990.84;;;18.08;47.75
64616;BME280;51027;42.162;24.754;2022-10-31T03:18:23;99993.56;;;18.21;47.17
64616;BME280;51027;42.162;24.754;2022-10-31T03:20:38;99990.22;;;18.17;47.35
64616;BME280;51027;42.162;24.754;2022-10-31T03:23:08;99999.75;;;18.21;47.38
64616;BME280;51027;42.162;24.754;2022-10-31T03:25:36;99985.09;;;18.14;47.25
64616;BME280;51027;42.162;24.754;2022-10-31T03:28:04;100010.78;;;18.29;46.85
64616;BME280;51027;42.162;24.754;2022-10-31T03:30:33;100011.38;;;18.20;46.89
64616;BME280;51027;42.162;24.754;2022-10-31T03:33:01;100020.16;;;18.35;46.93
64616;BME280;51027;42.162;24.754;2022-10-31T03:35:28;100016.50;;;18.23;46.99
64616;BME280;51027;42.162;24.754;2022-10-31T03:37:55;100026.41;;;18.21;47.03
64616;BME280;51027;42.162;24.754;2022-10-31T03:40:23;100023.94;;;18.18;47.22
64616;BME280;51027;42.162;24.754;2022-10-31T03:43:00;100023.50;;;18.11;47.74
64616;BME280;51027;42.162;24.754;2022-10-31T03:45:30;100025.31;;;18.11;47.56
64616;BME280;51027;42.162;24.754;2022-10-31T03:47:57;100015.34;;;18.00;48.01
64616;BME280;51027;42.162;24.754;2022-10-31T03:50:25;100016.94;;;18.03;47.74
64616;BME280;51027;42.162;24.754;2022-10-31T03:52:59;100014.22;;;17.90;47.96
64616;BME280;51027;42.162;24.754;2022-10-31T03:58:06;100036.50;;;17.89;48.26
64616;BME280;51027;42.162;24.754;2022-10-31T04:00:34;100007.50;;;17.70;48.14
64616;BME280;51027;42.162;24.754;2022-10-31T04:03:06;100035.53;;;17.76;48.65
64616;BME280;51027;42.162;24.754;2022-10-31T04:05:33;100042.69;;;17.75;48.83
64616;BME280;51027;42.162;24.754;2022-10-31T04:08:00;100039.06;;;17.76;48.39
64616;BME280;51027;42.162;24.754;2022-10-31T04:10:28;100042.28;;;17.67;48.69
64616;BME280;51027;42.162;24.754;2022-10-31T04:13:02;100039.06;;;17.62;48.80
64616;BME280;51027;42.162;24.754;2022-10-31T04:15:31;100032.41;;;17.55;49.09
64616;BME280;51027;42.162;24.754;2022-10-31T04:17:58;100024.41;;;17.41;49.17
64616;BME280;51027;42.162;24.754;2022-10-31T04:20:36;100049.91;;;17.59;48.74
64616;BME280;51027;42.162;24.754;2022-10-31T04:23:03;100045.63;;;17.56;48.75
64616;BME280;51027;42.162;24.754;2022-10-31T04:25:29;100043.91;;;17.55;49.37
64616;BME280;51027;42.162;24.754;2022-10-31T04:27:54;100046.56;;;17.55;49.23
64616;BME280;51027;42.162;24.754;2022-10-31T04:30:20;100050.09;;;17.56;48.82
64616;BME280;51027;42.162;24.754;2022-10-31T04:32:45;99987.72;;;17.17;49.19
64616;BME280;51027;42.162;24.754;2022-10-31T04:35:11;100017.84;;;17.32;49.61
64616;BME280;51027;42.162;24.754;2022-10-31T04:37:36;100048.19;;;17.44;49.50
64616;BME280;51027;42.162;24.754;2022-10-31T04:40:02;100051.16;;;17.39;49.34
64616;BME280;51027;42.162;24.754;2022-10-31T04:42:30;100053.72;;;17.41;49.59
64616;BME280;51027;42.162;24.754;2022-10-31T04:44:56;100050.84;;;17.30;49.56
64616;BME280;51027;42.162;24.754;2022-10-31T04:47:22;100070.16;;;17.33;49.93
64616;BME280;51027;42.162;24.754;2022-10-31T04:49:47;100077.19;;;17.34;50.05
64616;BME280;51027;42.162;24.754;2022-10-31T04:52:12;100075.94;;;17.25;49.77
64616;BME280;51027;42.162;24.754;2022-10-31T04:54:38;100089.84;;;17.31;49.90
64616;BME280;51027;42.162;24.754;2022-10-31T04:57:04;100085.63;;;17.26;50.01
64616;BME280;51027;42.162;24.754;2022-10-31T04:59:29;100091.06;;;17.25;50.31
64616;BME280;51027;42.162;24.754;2022-10-31T05:01:55;100086.69;;;17.24;50.20
64616;BME280;51027;42.162;24.754;2022-10-31T05:04:20;100092.19;;;17.21;50.18
64616;BME280;51027;42.162;24.754;2022-10-31T05:06:45;100084.78;;;17.26;50.12
64616;BME280;51027;42.162;24.754;2022-10-31T05:09:11;100072.41;;;17.11;50.54
64616;BME280;51027;42.162;24.754;2022-10-31T05:11:36;100090.94;;;17.26;50.41
64616;BME280;51027;42.162;24.754;2022-10-31T05:14:02;100111.41;;;17.26;50.62
64616;BME280;51027;42.162;24.754;2022-10-31T05:16:28;100100.94;;;17.23;50.65
64616;BME280;51027;42.162;24.754;2022-10-31T05:18:53;100111.13;;;17.31;50.46
64616;BME280;51027;42.162;24.754;2022-10-31T05:21:18;100119.31;;;17.27;50.46
64616;BME280;51027;42.162;24.754;2022-10-31T05:23:44;100120.16;;;17.28;50.70
64616;BME280;51027;42.162;24.754;2022-10-31T05:26:09;100126.25;;;17.30;50.43
64616;BME280;51027;42.162;24.754;2022-10-31T05:28:35;100119.13;;;17.31;50.33
64616;BME280;51027;42.162;24.754;2022-10-31T05:31:00;100113.13;;;17.27;50.77
64616;BME280;51027;42.162;24.754;2022-10-31T05:33:25;100120.84;;;17.32;50.72
64616;BME280;51027;42.162;24.754;2022-10-31T05:35:51;100115.81;;;17.41;50.53
64616;BME280;51027;42.162;24.754;2022-10-31T05:38:16;100122.34;;;17.36;50.85
64616;BME280;51027;42.162;24.754;2022-10-31T05:40:42;100118.38;;;17.28;50.54
64616;BME280;51027;42.162;24.754;2022-10-31T05:43:07;100105.41;;;17.22;50.61
64616;BME280;51027;42.162;24.754;2022-10-31T05:45:32;100132.44;;;17.45;50.18
64616;BME280;51027;42.162;24.754;2022-10-31T05:48:00;100133.31;;;17.45;50.53
64616;BME280;51027;42.162;24.754;2022-10-31T05:50:28;100110.38;;;17.28;50.44
64616;BME280;51027;42.162;24.754;2022-10-31T05:53:02;100114.91;;;17.26;50.79
64616;BME280;51027;42.162;24.754;2022-10-31T05:55:29;100131.78;;;17.41;50.67
64616;BME280;51027;42.162;24.754;2022-10-31T05:57:55;100148.81;;;17.53;50.29
64616;BME280;51027;42.162;24.754;2022-10-31T06:00:21;100148.72;;;17.54;50.44
64616;BME280;51027;42.162;24.754;2022-10-31T06:02:48;100140.84;;;17.53;50.61
64616;BME280;51027;42.162;24.754;2022-10-31T06:05:13;100150.19;;;17.60;50.55
64616;BME280;51027;42.162;24.754;2022-10-31T06:07:39;100159.50;;;17.67;50.97
64616;BME280;51027;42.162;24.754;2022-10-31T06:10:06;100160.75;;;17.62;50.76
64616;BME280;51027;42.162;24.754;2022-10-31T06:12:33;100168.53;;;17.65;50.35
64616;BME280;51027;42.162;24.754;2022-10-31T06:15:04;100174.81;;;17.64;51.05
64616;BME280;51027;42.162;24.754;2022-10-31T06:17:31;100168.44;;;17.66;50.30
64616;BME280;51027;42.162;24.754;2022-10-31T06:19:56;100173.34;;;17.74;50.81
64616;BME280;51027;42.162;24.754;2022-10-31T06:22:22;100172.97;;;17.80;50.58
64616;BME280;51027;42.162;24.754;2022-10-31T06:24:47;100170.09;;;17.83;50.77
64616;BME280;51027;42.162;24.754;2022-10-31T06:27:12;100159.88;;;18.88;47.87
64616;BME280;51027;42.162;24.754;2022-10-31T06:29:38;100171.47;;;18.74;48.60
64616;BME280;51027;42.162;24.754;2022-10-31T06:32:04;100177.19;;;18.95;47.97
64616;BME280;51027;42.162;24.754;2022-10-31T06:34:29;100176.47;;;19.06;47.58
64616;BME280;51027;42.162;24.754;2022-10-31T06:36:54;100179.56;;;20.41;44.79
64616;BME280;51027;42.162;24.754;2022-10-31T06:39:20;100193.78;;;20.41;44.54
64616;BME280;51027;42.162;24.754;2022-10-31T06:41:47;100191.50;;;19.86;46.47
64616;BME280;51027;42.162;24.754;2022-10-31T06:44:13;100183.72;;;21.65;42.79
64616;BME280;51027;42.162;24.754;2022-10-31T06:46:38;100179.97;;;21.67;41.91
64616;BME280;51027;42.162;24.754;2022-10-31T06:49:03;100169.91;;;24.88;37.05
64616;BME280;51027;42.162;24.754;2022-10-31T06:51:29;100169.84;;;25.95;34.79
64616;BME280;51027;42.162;24.754;2022-10-31T06:53:54;100172.28;;;21.63;41.34
64616;BME280;51027;42.162;24.754;2022-10-31T06:56:19;100177.25;;;23.02;39.75
64616;BME280;51027;42.162;24.754;2022-10-31T06:58:45;100182.56;;;21.80;41.62
64616;BME280;51027;42.162;24.754;2022-10-31T07:01:10;100171.22;;;21.88;41.40
64616;BME280;51027;42.162;24.754;2022-10-31T07:03:36;100178.00;;;22.81;40.21
64616;BME280;51027;42.162;24.754;2022-10-31T07:06:01;100178.47;;;22.21;41.30
64616;BME280;51027;42.162;24.754;2022-10-31T07:08:26;100179.16;;;21.43;42.95
64616;BME280;51027;42.162;24.754;2022-10-31T07:10:54;100181.22;;;21.28;43.21
64616;BME280;51027;42.162;24.754;2022-10-31T07:13:20;100159.53;;;21.07;43.28
64616;BME280;51027;42.162;24.754;2022-10-31T07:15:51;100183.00;;;21.04;43.55
64616;BME280;51027;42.162;24.754;2022-10-31T07:18:17;100188.78;;;21.92;41.93
64616;BME280;51027;42.162;24.754;2022-10-31T07:20:42;100184.13;;;22.72;40.17
64616;BME280;51027;42.162;24.754;2022-10-31T07:23:11;100173.34;;;23.26;39.08
64616;BME280;51027;42.162;24.754;2022-10-31T07:25:40;100182.03;;;23.19;39.02
64616;BME280;51027;42.162;24.754;2022-10-31T07:28:06;100164.31;;;22.19;40.83
64616;BME280;51027;42.162;24.754;2022-10-31T07:30:32;100176.63;;;22.32;41.34
64616;BME280;51027;42.162;24.754;2022-10-31T07:32:58;100185.97;;;21.93;41.62
64616;BME280;51027;42.162;24.754;2022-10-31T07:35:26;100182.94;;;21.98;41.46
64616;BME280;51027;42.162;24.754;2022-10-31T07:37:52;100188.69;;;22.27;41.43
64616;BME280;51027;42.162;24.754;2022-10-31T07:40:18;100186.81;;;21.71;42.19
64616;BME280;51027;42.162;24.754;2022-10-31T07:42:46;100185.28;;;23.34;39.70
64616;BME280;51027;42.162;24.754;2022-10-31T07:45:18;100186.03;;;23.56;38.77
64616;BME280;51027;42.162;24.754;2022-10-31T07:47:45;100188.78;;;24.88;36.81
64616;BME280;51027;42.162;24.754;2022-10-31T07:50:19;100165.47;;;24.68;36.26
64616;BME280;51027;42.162;24.754;2022-10-31T07:52:45;100176.97;;;28.37;31.58
64616;BME280;51027;42.162;24.754;2022-10-31T07:55:11;100186.16;;;24.58;36.47
64616;BME280;51027;42.162;24.754;2022-10-31T07:57:37;100164.44;;;22.83;39.74
64616;BME280;51027;42.162;24.754;2022-10-31T08:00:04;100170.47;;;23.71;39.09
64616;BME280;51027;42.162;24.754;2022-10-31T08:02:32;100182.47;;;26.04;34.94
64616;BME280;51027;42.162;24.754;2022-10-31T08:04:57;100179.72;;;28.11;31.86
64616;BME280;51027;42.162;24.754;2022-10-31T08:07:22;100172.53;;;27.32;31.80
64616;BME280;51027;42.162;24.754;2022-10-31T08:09:48;100175.38;;;26.03;34.50
64616;BME280;51027;42.162;24.754;2022-10-31T08:12:13;100178.44;;;24.84;36.66
64616;BME280;51027;42.162;24.754;2022-10-31T08:14:39;100167.09;;;25.58;35.59
64616;BME280;51027;42.162;24.754;2022-10-31T08:17:04;100175.56;;;31.08;27.99
64616;BME280;51027;42.162;24.754;2022-10-31T08:19:30;100175.56;;;29.58;28.93
64616;BME280;51027;42.162;24.754;2022-10-31T08:21:55;100180.78;;;32.82;25.10
64616;BME280;51027;42.162;24.754;2022-10-31T08:24:21;100185.34;;;34.85;22.62
64616;BME280;51027;42.162;24.754;2022-10-31T08:26:47;100178.34;;;35.50;21.70
64616;BME280;51027;42.162;24.754;2022-10-31T08:29:12;100186.13;;;33.97;23.54
64616;BME280;51027;42.162;24.754;2022-10-31T08:31:38;100180.16;;;34.21;23.41
64616;BME280;51027;42.162;24.754;2022-10-31T08:34:03;100175.19;;;35.40;21.44
64616;BME280;51027;42.162;24.754;2022-10-31T08:36:29;100181.50;;;35.47;21.64
64616;BME280;51027;42.162;24.754;2022-10-31T08:38:55;100185.88;;;33.64;22.94
64616;BME280;51027;42.162;24.754;2022-10-31T08:41:21;100176.44;;;35.91;21.55
64616;BME280;51027;42.162;24.754;2022-10-31T08:43:46;100172.75;;;35.04;21.86
64616;BME280;51027;42.162;24.754;2022-10-31T08:46:12;100169.13;;;34.01;22.75
64616;BME280;51027;42.162;24.754;2022-10-31T08:48:37;100182.91;;;36.29;21.08
64616;BME280;51027;42.162;24.754;2022-10-31T08:51:03;100184.00;;;38.43;18.96
64616;BME280;51027;42.162;24.754;2022-10-31T08:53:28;100178.69;;;38.59;18.32
64616;BME280;51027;42.162;24.754;2022-10-31T08:55:55;100181.28;;;34.68;21.45
64616;BME280;51027;42.162;24.754;2022-10-31T08:58:22;100176.22;;;34.24;22.39
64616;BME280;51027;42.162;24.754;2022-10-31T09:00:50;100186.34;;;35.59;20.89
64616;BME280;51027;42.162;24.754;2022-10-31T09:03:21;100183.94;;;28.82;27.68
64616;BME280;51027;42.162;24.754;2022-10-31T09:05:47;100170.09;;;29.42;27.91
64616;BME280;51027;42.162;24.754;2022-10-31T09:08:13;100171.25;;;28.14;29.95
64616;BME280;51027;42.162;24.754;2022-10-31T09:10:39;100182.94;;;30.68;27.27
64616;BME280;51027;42.162;24.754;2022-10-31T09:13:06;100180.84;;;32.37;24.51
64616;BME280;51027;42.162;24.754;2022-10-31T09:15:34;100172.50;;;29.77;27.64
64616;BME280;51027;42.162;24.754;2022-10-31T09:18:00;100182.47;;;27.49;30.24
64616;BME280;51027;42.162;24.754;2022-10-31T09:20:26;100184.25;;;25.66;34.39
64616;BME280;51027;42.162;24.754;2022-10-31T09:23:13;100180.81;;;26.85;32.35
64616;BME280;51027;42.162;24.754;2022-10-31T09:25:39;100179.38;;;26.91;33.53
64616;BME280;51027;42.162;24.754;2022-10-31T09:28:06;100174.72;;;25.81;33.77
64616;BME280;51027;42.162;24.754;2022-10-31T09:30:33;100172.19;;;26.27;33.35
64616;BME280;51027;42.162;24.754;2022-10-31T09:33:08;100168.00;;;26.32;33.39
64616;BME280;51027;42.162;24.754;2022-10-31T09:35:34;100166.97;;;27.77;31.06
64616;BME280;51027;42.162;24.754;2022-10-31T09:38:05;100164.84;;;26.92;32.45
64616;BME280;51027;42.162;24.754;2022-10-31T09:46:00;100166.88;;;29.46;27.90
64616;BME280;51027;42.162;24.754;2022-10-31T09:48:36;100168.25;;;30.47;26.22
64616;BME280;51027;42.162;24.754;2022-10-31T09:51:08;100144.38;;;27.07;30.75
64616;BME280;51027;42.162;24.754;2022-10-31T09:56:06;100154.25;;;26.26;33.06
64616;BME280;51027;42.162;24.754;2022-10-31T09:58:39;100163.75;;;25.93;33.52
64616;BME280;51027;42.162;24.754;2022-10-31T10:01:06;100149.59;;;25.62;33.61
64616;BME280;51027;42.162;24.754;2022-10-31T10:03:42;100171.19;;;25.81;33.12
64616;BME280;51027;42.162;24.754;2022-10-31T10:06:27;100154.91;;;26.10;33.35
64616;BME280;51027;42.162;24.754;2022-10-31T10:08:54;100129.81;;;25.90;33.40
64616;BME280;51027;42.162;24.754;2022-10-31T10:11:52;100141.69;;;25.70;34.54
64616;BME280;51027;42.162;24.754;2022-10-31T10:22:29;100134.25;;;30.43;27.08
64616;BME280;51027;42.162;24.754;2022-10-31T10:30:13;100138.25;;;28.10;29.57
64616;BME280;51027;42.162;24.754;2022-10-31T10:32:53;100132.28;;;26.66;32.49
64616;BME280;51027;42.162;24.754;2022-10-31T10:35:30;100126.59;;;26.14;33.49
64616;BME280;51027;42.162;24.754;2022-10-31T10:40:53;100120.34;;;26.13;32.92
64616;BME280;51027;42.162;24.754;2022-10-31T10:43:34;100120.81;;;26.09;32.78
64616;BME280;51027;42.162;24.754;2022-10-31T10:49:26;100106.88;;;26.31;33.26
64616;BME280;51027;42.162;24.754;2022-10-31T10:52:04;100113.13;;;25.77;33.07
64616;BME280;51027;42.162;24.754;2022-10-31T10:54:58;100103.09;;;26.52;32.78
64616;BME280;51027;42.162;24.754;2022-10-31T10:57:53;100099.47;;;26.43;32.64
64616;BME280;51027;42.162;24.754;2022-10-31T11:00:30;100100.66;;;26.58;32.71
64616;BME280;51027;42.162;24.754;2022-10-31T11:02:56;100100.16;;;26.45;33.04
64616;BME280;51027;42.162;24.754;2022-10-31T11:08:06;100100.66;;;26.31;32.73
64616;BME280;51027;42.162;24.754;2022-10-31T11:10:32;100092.13;;;26.26;33.08
64616;BME280;51027;42.162;24.754;2022-10-31T11:13:22;100106.44;;;26.81;32.69
64616;BME280;51027;42.162;24.754;2022-10-31T11:16:02;100097.44;;;26.45;32.32
64616;BME280;51027;42.162;24.754;2022-10-31T11:18:43;100089.41;;;26.08;33.36
64616;BME280;51027;42.162;24.754;2022-10-31T11:21:39;100088.41;;;25.72;33.57
64616;BME280;51027;42.162;24.754;2022-10-31T11:26:37;100092.91;;;25.81;34.02
64616;BME280;51027;42.162;24.754;2022-10-31T11:29:04;100082.63;;;25.94;34.61
64616;BME280;51027;42.162;24.754;2022-10-31T11:31:34;100083.25;;;26.43;32.91
64616;BME280;51027;42.162;24.754;2022-10-31T11:34:06;100080.47;;;26.25;33.31
64616;BME280;51027;42.162;24.754;2022-10-31T11:36:35;100075.44;;;26.12;33.69
64616;BME280;51027;42.162;24.754;2022-10-31T11:39:03;100057.09;;;25.89;34.19
64616;BME280;51027;42.162;24.754;2022-10-31T11:41:32;100081.59;;;25.77;34.54
64616;BME280;51027;42.162;24.754;2022-10-31T11:44:00;100070.09;;;25.66;34.39
64616;BME280;51027;42.162;24.754;2022-10-31T11:46:37;100071.53;;;25.60;35.10
64616;BME280;51027;42.162;24.754;2022-10-31T11:49:05;100068.16;;;25.48;34.78
64616;BME280;51027;42.162;24.754;2022-10-31T11:51:36;100062.94;;;25.37;35.49
64616;BME280;51027;42.162;24.754;2022-10-31T11:54:03;100070.63;;;25.22;35.36
64616;BME280;51027;42.162;24.754;2022-10-31T11:56:40;100064.06;;;25.44;34.63
64616;BME280;51027;42.162;24.754;2022-10-31T11:59:17;100064.53;;;25.77;34.24
64616;BME280;51027;42.162;24.754;2022-10-31T12:01:50;100063.03;;;25.92;34.09
64616;BME280;51027;42.162;24.754;2022-10-31T12:04:16;100060.28;;;26.29;33.89
64616;BME280;51027;42.162;24.754;2022-10-31T12:06:45;100064.81;;;26.38;33.41
64616;BME280;51027;42.162;24.754;2022-10-31T12:09:24;100057.41;;;26.58;32.70
64616;BME280;51027;42.162;24.754;2022-10-31T12:17:16;100067.75;;;28.36;30.60
64616;BME280;51027;42.162;24.754;2022-10-31T12:19:55;100059.63;;;28.45;30.54
64616;BME280;51027;42.162;24.754;2022-10-31T12:41:39;100052.31;;;27.35;31.91
64616;BME280;51027;42.162;24.754;2022-10-31T12:52:28;100052.25;;;27.78;30.23
64616;BME280;51027;42.162;24.754;2022-10-31T12:57:36;100050.75;;;28.26;30.67
64616;BME280;51027;42.162;24.754;2022-10-31T13:00:12;100040.56;;;27.18;31.43
64616;BME280;51027;42.162;24.754;2022-10-31T13:10:25;100040.09;;;26.87;33.54
64616;BME280;51027;42.162;24.754;2022-10-31T13:12:57;100044.78;;;27.20;32.36
64616;BME280;51027;42.162;24.754;2022-10-31T13:15:31;100055.16;;;30.29;28.50
64616;BME280;51027;42.162;24.754;2022-10-31T13:18:06;100044.78;;;29.22;29.16
64616;BME280;51027;42.162;24.754;2022-10-31T13:20:45;100051.56;;;28.85;29.59
64616;BME280;51027;42.162;24.754;2022-10-31T13:23:31;100049.00;;;28.76;30.76
64616;BME280;51027;42.162;24.754;2022-10-31T13:26:01;100052.06;;;27.46;31.42
64616;BME280;51027;42.162;24.754;2022-10-31T13:28:35;100045.31;;;27.50;31.03
64616;BME280;51027;42.162;24.754;2022-10-31T13:31:02;100038.63;;;26.75;31.66
64616;BME280;51027;42.162;24.754;2022-10-31T13:41:30;100037.19;;;26.35;31.94
64616;BME280;51027;42.162;24.754;2022-10-31T13:44:21;100043.22;;;26.29;32.65
64616;BME280;51027;42.162;24.754;2022-10-31T13:46:49;100012.06;;;26.34;31.51
64616;BME280;51027;42.162;24.754;2022-10-31T13:52:04;100038.00;;;26.00;32.96
64616;BME280;51027;42.162;24.754;2022-10-31T13:54:34;100002.31;;;25.78;33.89
64616;BME280;51027;42.162;24.754;2022-10-31T13:57:00;100025.06;;;25.76;33.95
64616;BME280;51027;42.162;24.754;2022-10-31T13:59:28;100028.09;;;25.53;33.99
64616;BME280;51027;42.162;24.754;2022-10-31T14:01:59;100033.59;;;25.62;34.69
64616;BME280;51027;42.162;24.754;2022-10-31T14:04:37;100027.00;;;25.46;34.51
64616;BME280;51027;42.162;24.754;2022-10-31T14:15:22;100044.88;;;25.84;33.81
64616;BME280;51027;42.162;24.754;2022-10-31T14:17:55;100047.84;;;26.19;33.13
64616;BME280;51027;42.162;24.754;2022-10-31T14:20:31;100047.81;;;25.54;33.80
64616;BME280;51027;42.162;24.754;2022-10-31T14:22:58;100046.22;;;25.24;34.45
64616;BME280;51027;42.162;24.754;2022-10-31T14:25:33;100050.06;;;25.02;34.87
64616;BME280;51027;42.162;24.754;2022-10-31T14:28:17;100043.81;;;24.82;35.28
64616;BME280;51027;42.162;24.754;2022-10-31T14:30:56;100053.47;;;24.85;35.55
64616;BME280;51027;42.162;24.754;2022-10-31T14:33:24;100056.59;;;24.90;35.42
64616;BME280;51027;42.162;24.754;2022-10-31T14:46:25;100051.16;;;24.41;37.15
64616;BME280;51027;42.162;24.754;2022-10-31T14:51:43;100072.28;;;24.36;36.67
64616;BME280;51027;42.162;24.754;2022-10-31T14:54:39;100072.16;;;24.38;36.74
64616;BME280;51027;42.162;24.754;2022-10-31T14:57:35;100067.63;;;24.38;36.93
64616;BME280;51027;42.162;24.754;2022-10-31T15:00:06;100076.69;;;24.37;36.99
64616;BME280;51027;42.162;24.754;2022-10-31T15:02:46;100065.72;;;24.29;37.26
64616;BME280;51027;42.162;24.754;2022-10-31T15:05:15;100077.06;;;24.23;37.33
64616;BME280;51027;42.162;24.754;2022-10-31T15:07:51;100075.88;;;24.06;37.79
64616;BME280;51027;42.162;24.754;2022-10-31T15:10:31;100071.34;;;24.07;37.67
64616;BME280;51027;42.162;24.754;2022-10-31T15:13:18;100079.25;;;23.99;37.70
64616;BME280;51027;42.162;24.754;2022-10-31T15:15:44;100081.47;;;23.84;38.48
64616;BME280;51027;42.162;24.754;2022-10-31T15:18:28;100083.16;;;23.85;38.01
64616;BME280;51027;42.162;24.754;2022-10-31T15:20:55;100079.91;;;23.81;37.94
64616;BME280;51027;42.162;24.754;2022-10-31T15:23:28;100071.75;;;23.62;38.47
64616;BME280;51027;42.162;24.754;2022-10-31T15:26:01;100086.66;;;23.55;39.75
64616;BME280;51027;42.162;24.754;2022-10-31T15:28:27;100079.53;;;23.44;39.09
64616;BME280;51027;42.162;24.754;2022-10-31T15:30:57;100071.88;;;23.40;39.25
64616;BME280;51027;42.162;24.754;2022-10-31T15:33:28;100093.03;;;23.54;38.60
64616;BME280;51027;42.162;24.754;2022-10-31T15:35:59;100092.31;;;23.52;38.75
64616;BME280;51027;42.162;24.754;2022-10-31T15:38:25;100088.31;;;23.46;38.94
64616;BME280;51027;42.162;24.754;2022-10-31T15:41:03;100085.34;;;23.49;38.57
64616;BME280;51027;42.162;24.754;2022-10-31T15:43:35;100102.16;;;23.42;38.75
64616;BME280;51027;42.162;24.754;2022-10-31T15:46:03;100072.91;;;23.27;38.70
64616;BME280;51027;42.162;24.754;2022-10-31T15:48:29;100090.56;;;23.41;39.16
64616;BME280;51027;42.162;24.754;2022-10-31T15:51:00;100097.44;;;23.34;38.97
64616;BME280;51027;42.162;24.754;2022-10-31T15:53:37;100092.91;;;23.35;39.34
64616;BME280;51027;42.162;24.754;2022-10-31T15:56:08;100107.28;;;23.24;39.35
64616;BME280;51027;42.162;24.754;2022-10-31T15:58:57;100088.78;;;23.10;39.45
64616;BME280;51027;42.162;24.754;2022-10-31T16:01:31;100099.91;;;23.05;39.46
64616;BME280;51027;42.162;24.754;2022-10-31T16:04:05;100109.38;;;22.99;39.77
64616;BME280;51027;42.162;24.754;2022-10-31T16:06:44;100102.44;;;22.86;40.28
64616;BME280;51027;42.162;24.754;2022-10-31T16:09:22;100115.88;;;22.86;40.11
64616;BME280;51027;42.162;24.754;2022-10-31T16:11:49;100105.50;;;22.81;40.22
64616;BME280;51027;42.162;24.754;2022-10-31T16:14:22;100121.25;;;22.75;40.56
64616;BME280;51027;42.162;24.754;2022-10-31T16:16:50;100126.63;;;22.75;40.49
64616;BME280;51027;42.162;24.754;2022-10-31T16:19:47;100135.22;;;22.68;41.21
64616;BME280;51027;42.162;24.754;2022-10-31T16:22:21;100131.69;;;22.57;41.45
64616;BME280;51027;42.162;24.754;2022-10-31T16:25:21;100137.19;;;22.55;41.38
64616;BME280;51027;42.162;24.754;2022-10-31T16:27:51;100142.81;;;22.41;41.65
64616;BME280;51027;42.162;24.754;2022-10-31T16:30:37;100147.56;;;22.37;41.57
64616;BME280;51027;42.162;24.754;2022-10-31T16:33:04;100144.78;;;22.39;41.45
64616;BME280;51027;42.162;24.754;2022-10-31T16:35:34;100111.00;;;22.03;41.97
64616;BME280;51027;42.162;24.754;2022-10-31T16:38:01;100161.50;;;22.20;42.01
64616;BME280;51027;42.162;24.754;2022-10-31T16:40:26;100156.03;;;22.10;41.96
64616;BME280;51027;42.162;24.754;2022-10-31T16:42:52;100160.16;;;22.14;42.25
64616;BME280;51027;42.162;24.754;2022-10-31T16:45:21;100166.94;;;21.96;43.29
64616;BME280;51027;42.162;24.754;2022-10-31T16:47:47;100164.25;;;21.96;43.35
64616;BME280;51027;42.162;24.754;2022-10-31T16:50:26;100169.88;;;21.82;43.34
64616;BME280;51027;42.162;24.754;2022-10-31T16:52:52;100167.91;;;21.73;43.64
64616;BME280;51027;42.162;24.754;2022-10-31T16:55:19;100137.88;;;21.45;43.38
64616;BME280;51027;42.162;24.754;2022-10-31T16:57:47;100178.88;;;21.70;43.19
64616;BME280;51027;42.162;24.754;2022-10-31T17:00:17;100184.50;;;21.78;43.02
64616;BME280;51027;42.162;24.754;2022-10-31T17:02:44;100188.13;;;21.66;43.38
64616;BME280;51027;42.162;24.754;2022-10-31T17:05:12;100192.25;;;21.59;43.80
64616;BME280;51027;42.162;24.754;2022-10-31T17:07:39;100194.78;;;21.49;44.75
64616;BME280;51027;42.162;24.754;2022-10-31T17:10:05;100170.50;;;21.28;44.13
64616;BME280;51027;42.162;24.754;2022-10-31T17:12:30;100197.19;;;21.41;44.13